Time;durP1;ratioP1;P1;durP2;ratioP2;P2;SDS_P1;SDS_P2;PMS_P1;PMS_P2;Temp;Humidity;BMP_temperature;BMP_pressure;BME280_temperature;BME280_humidity;BME280_pressure;Samples;Min_cycle;Max_cycle;Signal;HPM_P1;HPM_P2
2022/06/17 00:00:27;;;;;;;4.07;1.92;;;;;;;;;;4918666;29;20067;-73
2022/06/17 00:02:54;;;;;;;3.60;1.88;;;;;;;;;;4928722;28;20082;-74
2022/06/17 00:05:21;;;;;;;3.88;1.85;;;;;;;;;;4934207;29;20059;-73
2022/06/17 00:07:49;;;;;;;4.78;1.90;;;;;;;;;;4920350;29;20057;-73
2022/06/17 00:10:20;;;;;;;3.75;2.08;;;;;;;;;;4936586;29;20070;-73
2022/06/17 00:12:48;;;;;;;6.05;1.88;;;;;;;;;;4930924;29;20113;-72
2022/06/17 00:15:14;;;;;;;3.08;1.85;;;;;;;;;;4936058;29;20130;-72
2022/06/17 00:17:42;;;;;;;3.17;1.92;;;;;;;;;;4930910;29;20054;-73
2022/06/17 00:20:12;;;;;;;4.68;2.05;;;;;;;;;;4935646;29;20051;-73
2022/06/17 00:22:40;;;;;;;4.15;1.80;;;;;;;;;;4929433;29;20058;-72
2022/06/17 00:25:14;;;;;;;3.92;1.83;;;;;;;;;;4935774;29;20058;-72
2022/06/17 00:27:41;;;;;;;3.25;1.90;;;;;;;;;;4931431;29;20043;-74
2022/06/17 00:30:14;;;;;;;2.70;1.50;;;;;;;;;;4936485;29;20085;-72
2022/06/17 00:32:41;;;;;;;3.47;2.00;;;;;;;;;;4930800;29;20046;-72
2022/06/17 00:35:08;;;;;;;3.15;1.55;;;;;;;;;;4935543;29;20055;-72
2022/06/17 00:37:34;;;;;;;3.85;1.88;;;;;;;;;;4928574;28;20071;-73
2022/06/17 00:40:03;;;;;;;5.28;1.90;;;;;;;;;;4935551;29;20047;-72
2022/06/17 00:42:31;;;;;;;4.53;1.80;;;;;;;;;;4931857;28;20055;-73
2022/06/17 00:45:00;;;;;;;4.53;1.77;;;;;;;;;;4950485;29;20130;-72
2022/06/17 00:47:29;;;;;;;5.30;1.85;;;;;;;;;;4935813;29;20051;-73
2022/06/17 00:49:59;;;;;;;2.83;1.67;;;;;;;;;;4913740;29;20059;-72
2022/06/17 00:52:28;;;;;;;3.97;1.80;;;;;;;;;;4923549;29;20047;-72
2022/06/17 00:54:56;;;;;;;2.72;1.55;;;;;;;;;;4930107;29;20074;-73
2022/06/17 00:57:26;;;;;;;3.78;1.90;;;;;;;;;;4935296;29;20063;-74
2022/06/17 01:00:11;;;;;;;3.33;1.80;;;;;;;;;;4930433;29;20510;-73
2022/06/17 01:02:40;;;;;;;4.20;1.92;;;;;;;;;;4934193;28;20063;-74
2022/06/17 01:05:07;;;;;;;3.33;1.73;;;;;;;;;;4946657;28;20090;-74
2022/06/17 01:07:37;;;;;;;4.05;2.08;;;;;;;;;;4970357;28;20133;-74
2022/06/17 01:10:09;;;;;;;3.50;1.92;;;;;;;;;;4946485;28;20500;-72
2022/06/17 01:12:38;;;;;;;3.08;1.80;;;;;;;;;;4953972;28;20063;-72
2022/06/17 01:15:05;;;;;;;3.38;1.75;;;;;;;;;;4948456;28;20058;-72
2022/06/17 01:17:36;;;;;;;2.92;1.63;;;;;;;;;;4953964;28;20055;-74
2022/06/17 01:20:06;;;;;;;3.60;1.92;;;;;;;;;;4949725;28;20062;-74
2022/06/17 01:22:38;;;;;;;3.08;1.70;;;;;;;;;;4951986;28;20054;-73
2022/06/17 01:25:07;;;;;;;4.15;1.80;;;;;;;;;;4954127;28;20300;-75
2022/06/17 01:27:36;;;;;;;4.65;1.98;;;;;;;;;;4947960;28;20059;-72
2022/06/17 01:30:03;;;;;;;4.50;1.75;;;;;;;;;;4970473;28;20059;-73
2022/06/17 01:32:34;;;;;;;3.60;1.80;;;;;;;;;;4947469;28;20055;-72
2022/06/17 01:35:00;;;;;;;5.57;1.98;;;;;;;;;;4954050;28;20061;-72
2022/06/17 01:37:28;;;;;;;5.47;2.00;;;;;;;;;;4947339;28;20063;-74
2022/06/17 01:39:56;;;;;;;4.28;1.80;;;;;;;;;;4970566;28;20551;-73
2022/06/17 01:42:23;;;;;;;;;;;;;;;;;;4967484;28;20184;-74
2022/06/17 01:44:52;;;;;;;3.95;2.08;;;;;;;;;;4967764;28;19928;-75
2022/06/17 01:47:21;;;;;;;5.63;2.20;;;;;;;;;;4969969;28;20067;-74
2022/06/17 01:49:47;;;;;;;;;;;;;;;;;;4948116;28;20053;-74
2022/06/17 01:52:16;;;;;;;3.25;1.95;;;;;;;;;;4969339;28;19945;-75
2022/06/17 01:54:46;;;;;;;3.58;1.73;;;;;;;;;;4947548;28;20511;-74
2022/06/17 01:57:18;;;;;;;4.40;1.83;;;;;;;;;;4953481;28;20125;-74
2022/06/17 01:59:47;;;;;;;5.88;1.75;;;;;;;;;;4947792;28;20060;-75
2022/06/17 02:02:15;;;;;;;4.30;1.92;;;;;;;;;;4951247;28;20069;-75
2022/06/17 02:04:45;;;;;;;4.75;1.95;;;;;;;;;;4949405;28;20070;-74
2022/06/17 02:07:15;;;;;;;4.60;1.98;;;;;;;;;;4950279;28;20054;-74
2022/06/17 02:09:41;;;;;;;3.42;1.85;;;;;;;;;;4954070;28;20050;-75
2022/06/17 02:12:08;;;;;;;3.72;2.00;;;;;;;;;;4947402;28;20053;-73
2022/06/17 02:14:37;;;;;;;3.75;2.00;;;;;;;;;;4953172;28;20053;-75
2022/06/17 02:17:04;;;;;;;3.17;1.73;;;;;;;;;;4946973;28;20149;-77
2022/06/17 02:19:33;;;;;;;3.70;2.30;;;;;;;;;;4953274;28;20061;-73
2022/06/17 02:21:59;;;;;;;;;;;;;;;;;;4947964;28;20054;-75
2022/06/17 02:24:27;;;;;;;5.65;1.90;;;;;;;;;;4952965;28;20149;-75
2022/06/17 02:26:54;;;;;;;5.43;2.28;;;;;;;;;;4947330;28;20065;-75
2022/06/17 02:29:22;;;;;;;3.85;2.17;;;;;;;;;;4952492;28;20497;-76
2022/06/17 02:31:51;;;;;;;2.85;1.77;;;;;;;;;;4953760;28;20061;-76
2022/06/17 02:34:19;;;;;;;5.03;2.53;;;;;;;;;;4951348;28;20055;-74
2022/06/17 02:36:48;;;;;;;3.88;2.08;;;;;;;;;;4951329;28;20055;-74
2022/06/17 02:39:16;;;;;;;5.78;2.67;;;;;;;;;;4944162;28;20051;-76
2022/06/17 02:41:44;;;;;;;5.10;2.20;;;;;;;;;;4951146;28;20059;-76
2022/06/17 02:44:11;;;;;;;;;;;;;;;;;;4947439;28;20477;-77
2022/06/17 02:46:41;;;;;;;5.57;2.13;;;;;;;;;;4951860;28;19926;-74
2022/06/17 02:49:13;;;;;;;5.82;2.10;;;;;;;;;;4945409;28;20073;-75
2022/06/17 02:54:49;;;;;;;3.72;1.90;;;;;;;;;;5155660;23;20126;-74
2022/06/17 02:57:22;;;;;;;4.72;2.10;;;;;;;;;;4984427;28;20058;-77
2022/06/17 02:59:50;;;;;;;6.55;2.63;;;;;;;;;;4977885;28;20441;-75
2022/06/17 03:02:17;;;;;;;;;;;;;;;;;;4980890;28;20162;-78
2022/06/17 03:04:46;;;;;;;3.10;1.95;;;;;;;;;;4970953;28;19933;-76
2022/06/17 03:07:14;;;;;;;5.20;2.58;;;;;;;;;;4989493;28;20133;-76
2022/06/17 03:09:40;;;;;;;6.72;3.28;;;;;;;;;;4974693;28;20093;-76
2022/06/17 03:12:12;;;;;;;4.78;2.30;;;;;;;;;;5006047;28;20053;-75
2022/06/17 03:14:42;;;;;;;4.90;1.85;;;;;;;;;;4976665;28;20046;-74
2022/06/17 03:17:11;;;;;;;4.32;1.95;;;;;;;;;;5003662;28;20498;-75
2022/06/17 03:19:42;;;;;;;4.07;2.17;;;;;;;;;;4988806;28;20081;-77
2022/06/17 03:22:12;;;;;;;4.40;2.50;;;;;;;;;;4984600;28;20509;-76
2022/06/17 03:24:43;;;;;;;4.78;2.28;;;;;;;;;;4991357;28;20077;-77
2022/06/17 03:27:13;;;;;;;4.07;2.20;;;;;;;;;;4983216;28;20125;-75
2022/06/17 03:29:41;;;;;;;3.47;2.00;;;;;;;;;;4989521;28;20049;-75
2022/06/17 03:32:08;;;;;;;;;;;;;;;;;;4985535;28;20053;-75
2022/06/17 03:34:36;;;;;;;3.67;1.85;;;;;;;;;;4990322;28;20020;-73
2022/06/17 03:37:04;;;;;;;6.47;2.88;;;;;;;;;;4984163;28;20061;-73
2022/06/17 03:39:35;;;;;;;3.70;1.95;;;;;;;;;;4990457;28;20141;-73
2022/06/17 03:42:05;;;;;;;4.60;2.45;;;;;;;;;;4990034;28;20077;-73
2022/06/17 03:44:34;;;;;;;6.43;3.38;;;;;;;;;;4979176;28;20546;-73
2022/06/17 03:47:04;;;;;;;4.25;2.15;;;;;;;;;;4988544;28;20078;-74
2022/06/17 03:49:34;;;;;;;5.50;2.05;;;;;;;;;;4982461;28;20109;-74
2022/06/17 03:52:06;;;;;;;4.05;2.13;;;;;;;;;;4988568;28;20054;-73
2022/06/17 03:54:34;;;;;;;7.75;3.47;;;;;;;;;;4972515;28;20058;-73
2022/06/17 03:57:01;;;;;;;5.20;2.22;;;;;;;;;;4973401;28;20242;-74
2022/06/17 03:59:30;;;;;;;5.63;2.10;;;;;;;;;;4971218;28;20058;-72
2022/06/17 04:01:59;;;;;;;10.32;3.70;;;;;;;;;;4970790;28;20057;-73
2022/06/17 04:04:27;;;;;;;7.65;2.88;;;;;;;;;;4963517;28;20057;-73
2022/06/17 04:06:55;;;;;;;6.40;2.90;;;;;;;;;;4965699;28;20062;-73
2022/06/17 04:09:23;;;;;;;10.10;4.40;;;;;;;;;;4970818;28;20316;-73
2022/06/17 04:11:57;;;;;;;4.75;2.15;;;;;;;;;;4966306;28;20327;-74
2022/06/17 04:14:25;;;;;;;3.92;2.20;;;;;;;;;;4971631;28;20053;-72
2022/06/17 04:16:56;;;;;;;5.80;2.65;;;;;;;;;;4966728;28;20053;-73
2022/06/17 04:19:25;;;;;;;9.25;3.97;;;;;;;;;;4970570;28;20121;-72
2022/06/17 04:21:52;;;;;;;3.97;2.38;;;;;;;;;;4967099;28;20065;-73
2022/06/17 04:24:20;;;;;;;7.10;3.47;;;;;;;;;;4971881;28;20058;-73
2022/06/17 04:26:47;;;;;;;9.82;3.95;;;;;;;;;;4969335;28;20145;-73
2022/06/17 04:29:19;;;;;;;6.40;3.22;;;;;;;;;;4967029;28;20077;-74
2022/06/17 04:31:51;;;;;;;6.07;2.63;;;;;;;;;;4970933;28;20050;-74
2022/06/17 04:34:18;;;;;;;5.35;2.20;;;;;;;;;;4963360;28;20066;-73
2022/06/17 04:36:47;;;;;;;4.10;2.20;;;;;;;;;;4967224;28;20047;-73
2022/06/17 04:39:20;;;;;;;4.18;2.30;;;;;;;;;;4965696;28;20054;-73
2022/06/17 04:41:48;;;;;;;6.25;2.53;;;;;;;;;;4970869;28;20054;-73
2022/06/17 04:44:16;;;;;;;11.88;3.97;;;;;;;;;;4966275;28;20149;-74
2022/06/17 04:46:45;;;;;;;4.47;2.40;;;;;;;;;;4970639;28;20077;-74
2022/06/17 04:49:16;;;;;;;7.65;3.55;;;;;;;;;;4966587;28;20059;-73
2022/06/17 04:51:44;;;;;;;6.38;2.30;;;;;;;;;;4952093;28;20054;-73
2022/06/17 04:54:11;;;;;;;7.10;3.30;;;;;;;;;;4961024;28;20142;-73
2022/06/17 04:56:40;;;;;;;3.85;2.17;;;;;;;;;;4985117;28;20056;-74
2022/06/17 04:59:18;;;;;;;3.30;2.00;;;;;;;;;;4973603;28;20061;-72
2022/06/17 05:01:44;;;;;;;10.55;4.40;;;;;;;;;;4971625;28;20070;-73
2022/06/17 05:04:12;;;;;;;4.05;2.30;;;;;;;;;;4953231;28;20059;-74
2022/06/17 05:06:38;;;;;;;7.80;3.55;;;;;;;;;;4969067;28;20157;-73
2022/06/17 05:09:10;;;;;;;7.85;2.40;;;;;;;;;;4974349;28;20054;-73
2022/06/17 05:11:41;;;;;;;7.47;3.00;;;;;;;;;;4963792;28;20457;-73
2022/06/17 05:14:10;;;;;;;8.23;3.53;;;;;;;;;;4954123;28;20153;-74
2022/06/17 05:16:39;;;;;;;8.23;3.60;;;;;;;;;;4968215;28;20051;-73
2022/06/17 05:19:05;;;;;;;8.07;3.25;;;;;;;;;;4954569;28;20082;-72
2022/06/17 05:21:33;;;;;;;7.85;3.70;;;;;;;;;;4956458;28;20073;-74
2022/06/17 05:24:00;;;;;;;4.65;2.30;;;;;;;;;;4966924;28;20058;-72
2022/06/17 05:26:26;;;;;;;7.82;3.63;;;;;;;;;;4973591;28;20062;-73
2022/06/17 05:28:53;;;;;;;10.85;4.72;;;;;;;;;;4966203;28;20050;-73
2022/06/17 05:31:21;;;;;;;7.90;3.78;;;;;;;;;;4991403;28;20054;-73
2022/06/17 05:33:50;;;;;;;8.32;3.83;;;;;;;;;;4957714;28;20054;-73
2022/06/17 05:36:16;;;;;;;;;;;;;;;;;;4974858;28;20054;-73
2022/06/17 05:38:43;;;;;;;4.85;2.65;;;;;;;;;;4970884;28;19929;-73
2022/06/17 05:41:14;;;;;;;5.68;2.15;;;;;;;;;;4952583;28;20062;-72
2022/06/17 05:43:41;;;;;;;5.38;2.35;;;;;;;;;;4954143;28;20058;-73
2022/06/17 05:46:07;;;;;;;7.97;3.45;;;;;;;;;;4961048;28;20055;-73
2022/06/17 05:48:34;;;;;;;9.25;3.67;;;;;;;;;;4973542;28;20056;-74
2022/06/17 05:51:02;;;;;;;6.82;2.30;;;;;;;;;;4963617;28;20219;-74
2022/06/17 05:53:29;;;;;;;6.18;3.00;;;;;;;;;;4958433;28;20056;-74
2022/06/17 05:55:56;;;;;;;12.40;3.97;;;;;;;;;;4972622;28;20149;-73
2022/06/17 05:58:23;;;;;;;4.75;2.28;;;;;;;;;;4990816;28;20050;-74
2022/06/17 06:00:50;;;;;;;11.52;3.92;;;;;;;;;;4992552;28;20487;-73
2022/06/17 06:03:18;;;;;;;5.53;2.78;;;;;;;;;;4987294;28;20065;-72
2022/06/17 06:05:45;;;;;;;13.48;5.03;;;;;;;;;;4991741;28;20050;-73
2022/06/17 06:08:13;;;;;;;6.00;3.33;;;;;;;;;;4987574;28;20133;-73
2022/06/17 06:10:40;;;;;;;7.13;2.88;;;;;;;;;;4987141;28;20049;-74
2022/06/17 06:13:07;;;;;;;6.90;3.17;;;;;;;;;;4983127;28;20145;-73
2022/06/17 06:15:39;;;;;;;9.27;3.70;;;;;;;;;;4988530;28;20058;-73
2022/06/17 06:18:06;;;;;;;5.70;2.92;;;;;;;;;;4989846;28;20093;-74
2022/06/17 06:20:32;;;;;;;4.70;2.47;;;;;;;;;;5004123;28;20056;-73
2022/06/17 06:22:59;;;;;;;15.00;3.72;;;;;;;;;;4990084;28;20117;-73
2022/06/17 06:25:27;;;;;;;9.30;3.63;;;;;;;;;;4985348;28;20143;-73
2022/06/17 06:27:54;;;;;;;12.15;3.97;;;;;;;;;;4989052;28;20137;-72
2022/06/17 06:30:22;;;;;;;13.13;4.05;;;;;;;;;;4985833;28;20380;-73
2022/06/17 06:32:50;;;;;;;8.50;3.72;;;;;;;;;;4989380;28;20061;-73
2022/06/17 06:35:17;;;;;;;3.95;2.15;;;;;;;;;;4986374;28;20061;-72
2022/06/17 06:37:44;;;;;;;7.43;3.20;;;;;;;;;;4988034;28;20133;-76
2022/06/17 06:40:11;;;;;;;9.40;3.00;;;;;;;;;;4987740;28;20052;-74
2022/06/17 06:42:39;;;;;;;9.25;3.30;;;;;;;;;;4991751;28;20052;-73
2022/06/17 06:45:07;;;;;;;4.78;2.70;;;;;;;;;;4987018;28;20054;-73
2022/06/17 06:47:33;;;;;;;8.57;3.15;;;;;;;;;;4992097;28;20061;-73
2022/06/17 06:50:00;;;;;;;7.78;3.67;;;;;;;;;;4988962;28;20050;-75
2022/06/17 06:52:27;;;;;;;7.20;3.42;;;;;;;;;;4991402;28;20076;-74
2022/06/17 06:54:54;;;;;;;13.27;3.28;;;;;;;;;;4991014;28;20062;-74
2022/06/17 06:57:21;;;;;;;6.32;2.72;;;;;;;;;;4966706;28;20659;-73
2022/06/17 06:59:49;;;;;;;8.95;3.30;;;;;;;;;;4968727;28;20065;-74
2022/06/17 07:02:16;;;;;;;6.65;2.92;;;;;;;;;;4984488;28;20046;-72
2022/06/17 07:04:43;;;;;;;8.50;3.33;;;;;;;;;;4990232;28;20050;-72
2022/06/17 07:07:11;;;;;;;8.57;3.47;;;;;;;;;;4987101;28;20092;-72
2022/06/17 07:09:37;;;;;;;12.20;3.47;;;;;;;;;;4991830;28;20057;-72
2022/06/17 07:12:08;;;;;;;8.82;2.97;;;;;;;;;;4971735;28;20054;-71
2022/06/17 07:14:35;;;;;;;9.48;3.20;;;;;;;;;;4968952;28;20061;-71
2022/06/17 07:17:03;;;;;;;8.90;2.92;;;;;;;;;;4978290;28;20082;-71
2022/06/17 07:19:30;;;;;;;6.32;2.85;;;;;;;;;;4991982;28;20128;-72
2022/06/17 07:21:58;;;;;;;7.15;2.47;;;;;;;;;;4984235;28;20052;-72
2022/06/17 07:24:25;;;;;;;6.32;2.85;;;;;;;;;;4991493;28;20155;-71
2022/06/17 07:26:52;;;;;;;6.80;3.08;;;;;;;;;;4983002;28;20034;-71
2022/06/17 07:29:18;;;;;;;6.40;2.67;;;;;;;;;;4988013;28;20054;-72
2022/06/17 07:31:46;;;;;;;8.85;2.95;;;;;;;;;;4987275;28;20073;-72
2022/06/17 07:34:14;;;;;;;7.83;3.33;;;;;;;;;;4991038;28;20056;-72
2022/06/17 07:42:09;;;;;;;10.88;3.45;;;;;;;;;;4967275;28;20085;-71
2022/06/17 07:44:37;;;;;;;5.85;2.90;;;;;;;;;;4971369;28;20058;-72
2022/06/17 07:47:04;;;;;;;5.67;3.20;;;;;;;;;;4968582;28;20114;-71
2022/06/17 07:49:32;;;;;;;6.40;2.95;;;;;;;;;;4971100;28;20301;-71
2022/06/17 07:51:59;;;;;;;12.68;3.55;;;;;;;;;;4971671;28;20050;-71
2022/06/17 07:54:26;;;;;;;11.25;3.38;;;;;;;;;;4979923;28;20057;-72
2022/06/17 07:56:53;;;;;;;6.78;2.67;;;;;;;;;;4990257;28;20060;-71
2022/06/17 07:59:20;;;;;;;11.15;3.63;;;;;;;;;;4984431;28;20060;-71
2022/06/17 08:01:47;;;;;;;6.20;2.90;;;;;;;;;;4987685;28;20069;-71
2022/06/17 08:04:13;;;;;;;4.90;2.88;;;;;;;;;;4986155;28;20137;-72
2022/06/17 08:06:42;;;;;;;14.05;2.85;;;;;;;;;;4990893;28;20054;-72
2022/06/17 08:09:09;;;;;;;4.45;2.35;;;;;;;;;;4983907;28;20062;-73
2022/06/17 08:11:36;;;;;;;5.97;2.42;;;;;;;;;;4986845;28;20401;-72
2022/06/17 08:14:03;;;;;;;7.90;2.72;;;;;;;;;;4987044;28;20068;-72
2022/06/17 08:16:30;;;;;;;10.43;2.85;;;;;;;;;;4990610;28;20058;-73
2022/06/17 08:18:56;;;;;;;5.90;2.67;;;;;;;;;;4982625;28;20050;-72
2022/06/17 08:21:24;;;;;;;9.93;2.65;;;;;;;;;;4991043;28;20060;-71
2022/06/17 08:23:52;;;;;;;5.50;2.65;;;;;;;;;;4987112;28;20042;-72
2022/06/17 08:26:19;;;;;;;7.35;3.03;;;;;;;;;;4990897;28;20060;-71
2022/06/17 08:28:46;;;;;;;5.47;2.50;;;;;;;;;;4989629;28;20053;-72
2022/06/17 08:31:12;;;;;;;13.50;3.42;;;;;;;;;;4994821;28;20042;-72
2022/06/17 08:33:39;;;;;;;9.55;3.13;;;;;;;;;;4993993;28;20053;-72
2022/06/17 08:36:07;;;;;;;6.63;2.30;;;;;;;;;;4989971;28;20060;-71
2022/06/17 08:38:35;;;;;;;6.50;2.05;;;;;;;;;;4993127;28;20081;-72
2022/06/17 08:41:09;;;;;;;5.78;2.70;;;;;;;;;;4989195;28;20053;-71
2022/06/17 08:43:50;;;;;;;7.75;2.65;;;;;;;;;;4993952;28;20058;-72
2022/06/17 08:46:25;;;;;;;8.77;2.97;;;;;;;;;;4987773;28;20085;-71
2022/06/17 08:48:58;;;;;;;9.38;3.28;;;;;;;;;;4988311;28;20140;-71
2022/06/17 08:51:29;;;;;;;9.15;3.00;;;;;;;;;;5002821;28;20046;-72
2022/06/17 08:54:06;;;;;;;9.20;3.17;;;;;;;;;;5005956;28;20053;-71
2022/06/17 08:56:36;;;;;;;7.15;3.47;;;;;;;;;;4989168;28;20058;-71
2022/06/17 08:59:09;;;;;;;10.73;2.90;;;;;;;;;;4993544;28;20062;-71
2022/06/17 09:01:44;;;;;;;7.88;2.50;;;;;;;;;;4989437;28;20050;-71
2022/06/17 09:04:20;;;;;;;6.85;2.58;;;;;;;;;;4993508;28;20058;-72
2022/06/17 09:06:51;;;;;;;5.82;2.33;;;;;;;;;;4976556;28;20149;-71
2022/06/17 09:09:33;;;;;;;9.25;2.78;;;;;;;;;;4973653;28;20117;-71
2022/06/17 09:12:03;;;;;;;6.43;2.58;;;;;;;;;;4984249;28;20057;-71
2022/06/17 09:14:37;;;;;;;4.72;2.05;;;;;;;;;;4993207;28;20045;-72
2022/06/17 09:17:07;;;;;;;8.02;2.90;;;;;;;;;;4989206;28;20072;-71
2022/06/17 09:19:36;;;;;;;6.93;2.75;;;;;;;;;;4993311;28;20060;-71
2022/06/17 09:22:08;;;;;;;11.48;2.35;;;;;;;;;;4988305;28;20125;-71
2022/06/17 09:24:39;;;;;;;8.63;3.17;;;;;;;;;;4992981;28;20121;-72
2022/06/17 09:27:09;;;;;;;5.57;2.35;;;;;;;;;;4988116;28;20145;-72
2022/06/17 09:29:38;;;;;;;7.97;2.15;;;;;;;;;;4993053;28;20153;-72
2022/06/17 09:32:08;;;;;;;10.43;2.63;;;;;;;;;;4989025;28;20073;-72
2022/06/17 09:34:42;;;;;;;8.57;3.05;;;;;;;;;;4992809;28;20054;-72
2022/06/17 09:37:13;;;;;;;9.25;2.97;;;;;;;;;;4982849;28;20137;-72
2022/06/17 09:39:42;;;;;;;6.25;2.65;;;;;;;;;;4992033;28;20112;-72
2022/06/17 09:42:15;;;;;;;6.43;2.60;;;;;;;;;;4987548;28;20061;-72
2022/06/17 09:44:44;;;;;;;9.00;2.42;;;;;;;;;;4992849;28;20050;-72
2022/06/17 09:47:14;;;;;;;5.05;2.38;;;;;;;;;;4989111;28;20046;-72
2022/06/17 09:49:44;;;;;;;5.78;2.38;;;;;;;;;;4992614;28;20042;-71
2022/06/17 09:52:13;;;;;;;4.13;1.67;;;;;;;;;;4986056;28;20062;-71
2022/06/17 09:54:42;;;;;;;5.68;1.95;;;;;;;;;;4988912;28;20065;-71
2022/06/17 09:57:11;;;;;;;3.53;1.80;;;;;;;;;;4986212;28;20191;-71
2022/06/17 09:59:41;;;;;;;5.05;1.65;;;;;;;;;;4992636;28;20057;-71
2022/06/17 10:02:21;;;;;;;5.88;2.15;;;;;;;;;;5010561;28;20128;-71
2022/06/17 10:04:47;;;;;;;3.85;1.60;;;;;;;;;;4973469;28;20145;-71
2022/06/17 10:07:19;;;;;;;6.78;2.17;;;;;;;;;;4987849;28;20050;-71
2022/06/17 10:09:51;;;;;;;6.63;2.10;;;;;;;;;;4985367;28;20078;-71
2022/06/17 10:12:22;;;;;;;3.95;2.15;;;;;;;;;;4989943;28;20122;-71
2022/06/17 10:14:55;;;;;;;3.33;1.75;;;;;;;;;;4988244;28;20057;-71
2022/06/17 10:20:17;;;;;;;8.90;1.90;;;;;;;;;;4985271;28;20050;-71
2022/06/17 10:22:51;;;;;;;4.47;1.63;;;;;;;;;;4991278;28;20054;-71
2022/06/17 10:25:26;;;;;;;3.05;1.63;;;;;;;;;;4969918;28;20054;-71
2022/06/17 10:28:00;;;;;;;4.93;1.83;;;;;;;;;;4972732;28;20050;-71
2022/06/17 10:30:34;;;;;;;3.47;1.70;;;;;;;;;;4986626;28;20103;-71
2022/06/17 10:33:01;;;;;;;3.60;1.50;;;;;;;;;;5006295;28;20057;-71
2022/06/17 10:35:29;;;;;;;5.05;1.67;;;;;;;;;;4987465;28;20062;-71
2022/06/17 10:37:57;;;;;;;10.27;2.40;;;;;;;;;;4984208;28;20046;-71
2022/06/17 10:40:26;;;;;;;3.55;1.67;;;;;;;;;;4968947;28;20042;-71
2022/06/17 10:42:55;;;;;;;5.00;1.95;;;;;;;;;;4971705;28;20054;-72
2022/06/17 10:45:23;;;;;;;4.00;1.67;;;;;;;;;;4964572;28;20180;-71
2022/06/17 10:47:53;;;;;;;3.95;1.98;;;;;;;;;;4992137;28;20061;-71
2022/06/17 10:50:23;;;;;;;6.57;2.20;;;;;;;;;;4977488;28;20061;-71
2022/06/17 10:52:55;;;;;;;6.85;1.60;;;;;;;;;;4972033;28;20145;-71
2022/06/17 10:55:26;;;;;;;6.72;2.30;;;;;;;;;;4982553;28;20109;-70
2022/06/17 10:58:07;;;;;;;5.80;2.33;;;;;;;;;;4988635;28;20141;-70
2022/06/17 11:00:41;;;;;;;8.70;2.40;;;;;;;;;;4987708;28;20050;-70
2022/06/17 11:03:21;;;;;;;5.15;2.08;;;;;;;;;;4992614;28;20042;-70
2022/06/17 11:05:53;;;;;;;5.85;2.10;;;;;;;;;;4976093;28;20145;-71
2022/06/17 11:08:21;;;;;;;4.53;2.00;;;;;;;;;;4988405;28;20050;-71
2022/06/17 11:10:52;;;;;;;4.88;1.50;;;;;;;;;;4980766;28;20196;-70
2022/06/17 11:13:20;;;;;;;9.88;2.78;;;;;;;;;;4972022;28;20118;-71
2022/06/17 11:15:48;;;;;;;3.53;1.77;;;;;;;;;;4974453;28;20093;-70
2022/06/17 11:18:17;;;;;;;6.05;1.70;;;;;;;;;;4990950;28;20300;-71
2022/06/17 11:20:54;;;;;;;3.90;1.95;;;;;;;;;;4986741;28;20049;-71
2022/06/17 11:23:22;;;;;;;17.42;2.38;;;;;;;;;;4970422;28;20116;-71
2022/06/17 11:25:51;;;;;;;4.43;1.67;;;;;;;;;;4968640;28;20587;-71
2022/06/17 11:28:24;;;;;;;9.63;2.15;;;;;;;;;;4971960;28;20112;-71
2022/06/17 11:30:54;;;;;;;7.38;1.95;;;;;;;;;;4969170;28;20093;-71
2022/06/17 11:33:22;;;;;;;6.88;2.40;;;;;;;;;;4986244;28;20140;-71
2022/06/17 11:35:58;;;;;;;3.90;1.80;;;;;;;;;;4988650;28;20054;-71
2022/06/17 11:38:26;;;;;;;4.82;1.75;;;;;;;;;;4989370;28;20127;-71
2022/06/17 11:41:00;;;;;;;6.85;1.92;;;;;;;;;;4978792;28;20062;-71
2022/06/17 11:43:31;;;;;;;2.47;1.52;;;;;;;;;;4987945;28;20054;-72
2022/06/17 11:46:05;;;;;;;5.55;1.80;;;;;;;;;;5007856;28;20053;-72
2022/06/17 11:48:32;;;;;;;5.60;1.50;;;;;;;;;;4984406;28;20054;-72
2022/06/17 11:51:04;;;;;;;5.07;1.90;;;;;;;;;;4987128;28;20058;-72
2022/06/17 11:53:33;;;;;;;4.18;1.60;;;;;;;;;;4986766;28;20061;-72
2022/06/17 11:56:00;;;;;;;4.47;1.55;;;;;;;;;;4989628;28;20046;-70
2022/06/17 11:58:26;;;;;;;3.85;1.90;;;;;;;;;;4973180;28;20082;-70
2022/06/17 12:00:54;;;;;;;3.45;1.65;;;;;;;;;;4971832;28;20057;-72
2022/06/17 12:03:22;;;;;;;7.28;2.10;;;;;;;;;;4983162;28;20064;-72
2022/06/17 12:05:57;;;;;;;7.93;1.80;;;;;;;;;;4990148;28;20077;-72
2022/06/17 12:08:26;;;;;;;5.82;1.80;;;;;;;;;;4987524;28;20112;-72
2022/06/17 12:10:56;;;;;;;4.47;1.73;;;;;;;;;;4992624;28;20060;-72
2022/06/17 12:13:26;;;;;;;9.30;2.33;;;;;;;;;;4986359;28;20058;-72
2022/06/17 12:15:55;;;;;;;7.47;2.10;;;;;;;;;;4975187;28;20052;-72
2022/06/17 12:18:24;;;;;;;3.63;1.73;;;;;;;;;;4973523;28;20061;-71
2022/06/17 12:20:54;;;;;;;5.30;1.65;;;;;;;;;;4990381;28;20128;-72
2022/06/17 12:23:25;;;;;;;7.32;1.95;;;;;;;;;;4994282;28;20056;-72
2022/06/17 12:25:56;;;;;;;4.47;1.83;;;;;;;;;;4976403;28;20058;-72
2022/06/17 12:28:27;;;;;;;4.30;1.73;;;;;;;;;;4975231;28;20050;-71
2022/06/17 12:30:59;;;;;;;6.25;1.80;;;;;;;;;;4979507;28;20050;-72
2022/06/17 12:33:28;;;;;;;4.47;1.90;;;;;;;;;;4994230;28;20049;-72
2022/06/17 12:35:59;;;;;;;6.63;2.85;;;;;;;;;;4985365;28;20063;-72
2022/06/17 12:38:31;;;;;;;6.45;2.58;;;;;;;;;;4994524;28;20085;-71
2022/06/17 12:41:03;;;;;;;5.20;1.92;;;;;;;;;;4990462;28;20045;-71
2022/06/17 12:43:32;;;;;;;7.95;2.47;;;;;;;;;;4980274;28;20077;-72
2022/06/17 12:46:00;;;;;;;4.10;1.60;;;;;;;;;;4989994;28;20050;-71
2022/06/17 12:48:32;;;;;;;3.80;1.90;;;;;;;;;;4973962;28;20043;-71
2022/06/17 12:53:49;;;;;;;7.10;2.50;;;;;;;;;;4975810;28;20061;-72
2022/06/17 12:56:24;;;;;;;4.57;2.03;;;;;;;;;;4973992;28;20061;-71
2022/06/17 12:58:58;;;;;;;3.63;1.75;;;;;;;;;;4962478;28;20120;-71
2022/06/17 13:01:26;;;;;;;3.53;1.55;;;;;;;;;;4953963;28;20054;-71
2022/06/17 13:04:00;;;;;;;5.07;1.88;;;;;;;;;;4951489;28;20082;-71
2022/06/17 13:06:30;;;;;;;5.47;1.70;;;;;;;;;;4974498;28;20050;-71
2022/06/17 13:09:01;;;;;;;4.25;1.70;;;;;;;;;;4972340;28;20054;-72
2022/06/17 13:11:34;;;;;;;4.30;1.70;;;;;;;;;;4969530;28;20050;-71
2022/06/17 13:14:19;;;;;;;4.95;1.90;;;;;;;;;;4956514;28;20055;-71
2022/06/17 13:16:49;;;;;;;6.15;1.60;;;;;;;;;;4951505;28;20054;-72
2022/06/17 13:19:19;;;;;;;3.80;1.92;;;;;;;;;;4955768;28;20083;-69
2022/06/17 13:21:50;;;;;;;4.32;1.95;;;;;;;;;;4951172;28;20054;-71
2022/06/17 13:24:23;;;;;;;2.97;1.50;;;;;;;;;;4954782;28;20058;-71
2022/06/17 13:26:54;;;;;;;7.38;1.67;;;;;;;;;;4962060;28;20062;-71
2022/06/17 13:29:29;;;;;;;4.57;1.45;;;;;;;;;;4972155;28;20088;-71
2022/06/17 13:31:58;;;;;;;4.15;1.48;;;;;;;;;;4969570;28;20050;-71
2022/06/17 13:34:29;;;;;;;6.50;1.38;;;;;;;;;;4973015;28;20052;-71
2022/06/17 13:36:58;;;;;;;4.07;1.30;;;;;;;;;;4961251;28;20145;-72
2022/06/17 13:39:27;;;;;;;4.32;1.30;;;;;;;;;;4953666;28;20055;-71
2022/06/17 13:41:57;;;;;;;2.40;1.25;;;;;;;;;;4950772;28;20080;-72
2022/06/17 13:44:30;;;;;;;2.13;1.30;;;;;;;;;;4953260;28;20054;-72
2022/06/17 13:47:02;;;;;;;5.13;1.35;;;;;;;;;;4950838;28;20046;-72
2022/06/17 13:49:35;;;;;;;3.30;1.40;;;;;;;;;;4954267;28;20124;-71
2022/06/17 13:52:05;;;;;;;2.13;1.20;;;;;;;;;;4951372;28;20061;-72
2022/06/17 13:54:35;;;;;;;1.67;1.27;;;;;;;;;;4964423;28;20059;-72
2022/06/17 13:57:07;;;;;;;2.22;1.30;;;;;;;;;;4960879;28;20050;-71
2022/06/17 13:59:35;;;;;;;2.42;1.20;;;;;;;;;;4992790;28;20049;-71
2022/06/17 14:02:21;;;;;;;2.55;1.40;;;;;;;;;;4987201;28;20081;-71
2022/06/17 14:05:04;;;;;;;1.85;1.05;;;;;;;;;;4992509;28;20093;-71
2022/06/17 14:07:46;;;;;;;2.67;1.40;;;;;;;;;;4985685;28;20066;-72
2022/06/17 14:10:27;;;;;;;3.53;1.48;;;;;;;;;;4971925;28;20066;-72
2022/06/17 14:12:55;;;;;;;2.67;1.20;;;;;;;;;;4968282;28;20050;-71
2022/06/17 14:15:24;;;;;;;3.42;1.33;;;;;;;;;;4989032;28;20050;-72
2022/06/17 14:17:52;;;;;;;3.58;1.38;;;;;;;;;;4988275;28;20156;-72
2022/06/17 14:20:40;;;;;;;1.80;1.00;;;;;;;;;;4992252;28;20057;-72
2022/06/17 14:23:08;;;;;;;;;;;;;;;;;;4983364;28;20046;-72
2022/06/17 14:25:47;;;;;;;3.38;1.55;;;;;;;;;;4992393;28;19953;-73
2022/06/17 14:28:45;;;;;;;6.60;1.33;;;;;;;;;;4988488;28;20057;-71
2022/06/17 14:31:30;;;;;;;2.28;1.10;;;;;;;;;;4968510;28;20081;-71
2022/06/17 14:34:05;;;;;;;2.47;1.33;;;;;;;;;;4985041;28;20077;-72
2022/06/17 14:36:46;;;;;;;5.43;1.40;;;;;;;;;;4988815;28;20050;-73
2022/06/17 14:39:22;;;;;;;1.98;1.20;;;;;;;;;;4988212;28;20096;-72
2022/06/17 14:42:05;;;;;;;3.60;1.25;;;;;;;;;;4992040;28;20160;-72
2022/06/17 14:44:37;;;;;;;3.47;1.30;;;;;;;;;;4986702;28;20050;-73
2022/06/17 14:47:23;;;;;;;3.70;1.33;;;;;;;;;;4981973;28;20045;-72
2022/06/17 14:50:11;;;;;;;1.60;1.10;;;;;;;;;;4974671;28;20066;-72
2022/06/17 14:52:39;;;;;;;2.85;1.33;;;;;;;;;;4988585;28;20043;-71
2022/06/17 14:55:17;;;;;;;1.95;1.00;;;;;;;;;;4987442;28;20046;-72
2022/06/17 14:57:45;;;;;;;3.67;1.30;;;;;;;;;;4991679;28;20148;-72
2022/06/17 15:00:14;;;;;;;4.93;1.40;;;;;;;;;;5004737;28;20080;-73
2022/06/17 15:02:42;;;;;;;2.70;1.15;;;;;;;;;;4990876;28;20064;-73
2022/06/17 15:05:21;;;;;;;2.40;1.10;;;;;;;;;;4987352;28;20048;-73
2022/06/17 15:07:49;;;;;;;2.00;1.10;;;;;;;;;;4989903;28;20058;-75
2022/06/17 15:10:18;;;;;;;2.17;1.10;;;;;;;;;;4987505;28;20046;-70
2022/06/17 15:12:47;;;;;;;3.63;1.15;;;;;;;;;;4981056;28;20053;-70
2022/06/17 15:15:15;;;;;;;1.60;1.00;;;;;;;;;;4983534;28;20042;-70